EXS38B LERS-EGNM
Flight info
| Callsign | EXS38B |
|---|---|
| Flight time | 2h 9m |
| Altitude | 36000 |
| Route | NATPI DCT EVNAM DCT TUPAR UY120 AKIKI UN867 AVANT UM184 HEMEL T420 TNT N57 DENBY |
| Aircraft | B738/M-SDE2E3FGHIRWXY/LB1 |
Departure
| Time | 2026-04-27 17:05 |
|---|---|
| Airport | Reus Airport (LERS) |
Arrival
| Time | 2026-04-27 19:15 |
|---|---|
| Airport | Leeds Bradford Airport (EGNM) |
| Time | Latitude | Longitude | Altitude | Speed | Heading |
|---|---|---|---|---|---|
| 2026-04-27 16:53 | 41.14729 | 1.15803 | 238 ft | 0 kts | 338° |
| 2026-04-27 16:55 | 41.14727 | 1.15804 | 238 ft | 3 kts | 338° |
| 2026-04-27 16:55 | 41.14706 | 1.15816 | 238 ft | 3 kts | 343° |
| 2026-04-27 16:55 | 41.14685 | 1.15823 | 238 ft | 3 kts | 349° |
| 2026-04-27 16:55 | 41.14664 | 1.15827 | 238 ft | 3 kts | 358° |
| 2026-04-27 16:56 | 41.14646 | 1.15827 | 238 ft | 1 kts | 3° |
| 2026-04-27 16:56 | 41.14642 | 1.15826 | 238 ft | 0 kts | 3° |
| 2026-04-27 16:59 | 41.14657 | 1.15837 | 238 ft | 4 kts | 41° |
| 2026-04-27 17:00 | 41.14679 | 1.15904 | 238 ft | 7 kts | 69° |
| 2026-04-27 17:00 | 41.14713 | 1.16023 | 238 ft | 13 kts | 70° |
| 2026-04-27 17:00 | 41.14745 | 1.16131 | 238 ft | 12 kts | 70° |
| 2026-04-27 17:01 | 41.14775 | 1.16235 | 239 ft | 12 kts | 70° |
| 2026-04-27 17:01 | 41.14806 | 1.16342 | 239 ft | 14 kts | 69° |
| 2026-04-27 17:01 | 41.14846 | 1.16479 | 239 ft | 18 kts | 69° |
| 2026-04-27 17:01 | 41.14895 | 1.16645 | 239 ft | 21 kts | 69° |
| 2026-04-27 17:02 | 41.14947 | 1.16836 | 239 ft | 24 kts | 68° |
| 2026-04-27 17:02 | 41.15011 | 1.17044 | 239 ft | 24 kts | 69° |
| 2026-04-27 17:02 | 41.15070 | 1.17242 | 240 ft | 23 kts | 69° |
| 2026-04-27 17:02 | 41.15126 | 1.17434 | 240 ft | 22 kts | 69° |
| 2026-04-27 17:03 | 41.15181 | 1.17622 | 240 ft | 21 kts | 69° |
| 2026-04-27 17:03 | 41.15234 | 1.17805 | 241 ft | 21 kts | 69° |
| 2026-04-27 17:03 | 41.15284 | 1.17977 | 241 ft | 18 kts | 69° |
| 2026-04-27 17:03 | 41.15328 | 1.18126 | 241 ft | 17 kts | 69° |
| 2026-04-27 17:04 | 41.15334 | 1.18237 | 241 ft | 9 kts | 143° |
| 2026-04-27 17:04 | 41.15278 | 1.18262 | 241 ft | 8 kts | 161° |
| 2026-04-27 17:04 | 41.15223 | 1.18285 | 242 ft | 8 kts | 170° |
| 2026-04-27 17:04 | 41.15187 | 1.18239 | 242 ft | 8 kts | 247° |
| 2026-04-27 17:05 | 41.15160 | 1.18148 | 242 ft | 19 kts | 249° |
| 2026-04-27 17:05 | 41.15006 | 1.17626 | 241 ft | 102 kts | 249° |
| 2026-04-27 17:05 | 41.14653 | 1.16446 | 293 ft | 166 kts | 245° |
| 2026-04-27 17:05 | 41.14207 | 1.14991 | 1099 ft | 170 kts | 246° |
| 2026-04-27 17:06 | 41.13683 | 1.13588 | 2028 ft | 174 kts | 237° |
| 2026-04-27 17:06 | 41.13027 | 1.12145 | 2664 ft | 193 kts | 236° |
| 2026-04-27 17:06 | 41.12276 | 1.10571 | 3220 ft | 205 kts | 236° |
| 2026-04-27 17:06 | 41.11505 | 1.08950 | 3818 ft | 211 kts | 237° |
| 2026-04-27 17:07 | 41.10717 | 1.07266 | 4347 ft | 220 kts | 237° |
| 2026-04-27 17:07 | 41.09874 | 1.05446 | 4563 ft | 244 kts | 238° |
| 2026-04-27 17:07 | 41.08967 | 1.03467 | 4973 ft | 259 kts | 238° |
| 2026-04-27 17:07 | 41.08013 | 1.01364 | 5484 ft | 271 kts | 239° |
| 2026-04-27 17:08 | 41.07042 | 0.99209 | 6305 ft | 274 kts | 239° |
| 2026-04-27 17:08 | 41.06051 | 0.97007 | 7057 ft | 280 kts | 239° |
| 2026-04-27 17:08 | 41.05044 | 0.94769 | 7788 ft | 285 kts | 239° |
| 2026-04-27 17:08 | 41.04039 | 0.92532 | 8597 ft | 287 kts | 240° |
| 2026-04-27 17:09 | 41.03340 | 0.90051 | 9344 ft | 291 kts | 265° |
| 2026-04-27 17:09 | 41.03584 | 0.87413 | 10145 ft | 291 kts | 293° |
| 2026-04-27 17:09 | 41.04679 | 0.85197 | 10869 ft | 291 kts | 319° |
| 2026-04-27 17:09 | 41.06412 | 0.83820 | 11573 ft | 293 kts | 344° |
| 2026-04-27 17:10 | 41.08430 | 0.83558 | 12288 ft | 295 kts | 7° |
| 2026-04-27 17:10 | 41.10439 | 0.84187 | 13008 ft | 300 kts | 17° |
| 2026-04-27 17:10 | 41.12444 | 0.85065 | 13692 ft | 305 kts | 18° |
| 2026-04-27 17:10 | 41.14463 | 0.85997 | 14352 ft | 309 kts | 19° |
| 2026-04-27 17:11 | 41.16500 | 0.86931 | 15006 ft | 312 kts | 18° |
| 2026-04-27 17:11 | 41.20651 | 0.88788 | 16052 ft | 328 kts | 18° |
| 2026-04-27 17:11 | 41.22890 | 0.89773 | 16201 ft | 349 kts | 18° |
| 2026-04-27 17:12 | 41.27631 | 0.91844 | 17171 ft | 365 kts | 18° |
| 2026-04-27 17:12 | 41.30111 | 0.92925 | 17295 ft | 384 kts | 18° |
| 2026-04-27 17:12 | 41.32698 | 0.94053 | 17567 ft | 396 kts | 18° |
| 2026-04-27 17:13 | 41.35327 | 0.95214 | 18116 ft | 400 kts | 20° |
| 2026-04-27 17:13 | 41.37795 | 0.96938 | 18662 ft | 403 kts | 35° |
| 2026-04-27 17:13 | 41.40066 | 0.99160 | 19209 ft | 405 kts | 36° |
| 2026-04-27 17:13 | 41.42339 | 1.01406 | 19705 ft | 409 kts | 36° |
| 2026-04-27 17:14 | 41.44643 | 1.03657 | 20216 ft | 412 kts | 35° |
| 2026-04-27 17:14 | 41.46975 | 1.05904 | 20724 ft | 414 kts | 35° |
| 2026-04-27 17:14 | 41.49305 | 1.08131 | 21222 ft | 417 kts | 34° |
| 2026-04-27 17:14 | 41.51670 | 1.10388 | 21700 ft | 420 kts | 34° |
| 2026-04-27 17:15 | 41.54095 | 1.12602 | 22154 ft | 423 kts | 27° |
| 2026-04-27 17:15 | 41.56845 | 1.13952 | 22591 ft | 423 kts | 12° |
| 2026-04-27 17:15 | 41.59719 | 1.14830 | 23090 ft | 425 kts | 12° |
| 2026-04-27 17:15 | 41.62617 | 1.15724 | 23511 ft | 428 kts | 12° |
| 2026-04-27 17:16 | 41.65527 | 1.16636 | 23884 ft | 432 kts | 12° |
| 2026-04-27 17:16 | 41.68462 | 1.17572 | 24268 ft | 434 kts | 12° |
| 2026-04-27 17:16 | 41.71365 | 1.18510 | 24638 ft | 436 kts | 12° |
| 2026-04-27 17:16 | 41.74326 | 1.19473 | 25004 ft | 438 kts | 12° |
| 2026-04-27 17:17 | 41.77297 | 1.20444 | 25357 ft | 440 kts | 12° |
| 2026-04-27 17:17 | 41.80276 | 1.21418 | 25702 ft | 443 kts | 12° |
| 2026-04-27 17:17 | 41.83279 | 1.22402 | 26048 ft | 445 kts | 12° |
| 2026-04-27 17:18 | 41.89290 | 1.24371 | 26957 ft | 443 kts | 12° |
| 2026-04-27 17:18 | 41.92273 | 1.25350 | 27505 ft | 440 kts | 12° |
| 2026-04-27 17:18 | 41.95236 | 1.26323 | 28033 ft | 438 kts | 12° |
| 2026-04-27 17:18 | 41.98191 | 1.27294 | 28486 ft | 437 kts | 12° |
| 2026-04-27 17:19 | 42.01152 | 1.28267 | 28913 ft | 437 kts | 12° |
| 2026-04-27 17:19 | 42.04106 | 1.29239 | 29364 ft | 436 kts | 12° |
| 2026-04-27 17:19 | 42.07058 | 1.30211 | 29843 ft | 435 kts | 12° |
| 2026-04-27 17:19 | 42.09996 | 1.31179 | 30273 ft | 434 kts | 12° |
| 2026-04-27 17:20 | 42.12923 | 1.32144 | 30652 ft | 434 kts | 12° |
| 2026-04-27 17:20 | 42.15856 | 1.33113 | 31076 ft | 432 kts | 12° |
| 2026-04-27 17:20 | 42.18768 | 1.34076 | 31549 ft | 430 kts | 12° |
| 2026-04-27 17:20 | 42.21667 | 1.34807 | 31864 ft | 428 kts | 1° |
| 2026-04-27 17:21 | 42.24626 | 1.34457 | 32178 ft | 426 kts | 350° |
| 2026-04-27 17:21 | 42.27543 | 1.33782 | 32567 ft | 424 kts | 349° |
| 2026-04-27 17:21 | 42.30450 | 1.33085 | 32885 ft | 424 kts | 349° |
| 2026-04-27 17:21 | 42.33358 | 1.32394 | 33212 ft | 424 kts | 349° |
| 2026-04-27 17:22 | 42.36257 | 1.31719 | 33556 ft | 423 kts | 349° |
| 2026-04-27 17:22 | 42.39157 | 1.31058 | 33862 ft | 422 kts | 349° |
| 2026-04-27 17:22 | 42.42057 | 1.30406 | 34133 ft | 423 kts | 350° |
| 2026-04-27 17:22 | 42.44964 | 1.29756 | 34391 ft | 423 kts | 350° |
| 2026-04-27 17:23 | 42.47863 | 1.29109 | 34644 ft | 422 kts | 350° |
| 2026-04-27 17:23 | 42.50761 | 1.28462 | 34912 ft | 421 kts | 349° |
| 2026-04-27 17:23 | 42.53652 | 1.27816 | 35195 ft | 420 kts | 349° |
| 2026-04-27 17:23 | 42.56539 | 1.27170 | 35461 ft | 419 kts | 349° |
| 2026-04-27 17:24 | 42.59385 | 1.26532 | 35699 ft | 419 kts | 349° |
| 2026-04-27 17:24 | 42.62257 | 1.25887 | 35955 ft | 418 kts | 349° |
| 2026-04-27 17:24 | 42.65125 | 1.25242 | 36163 ft | 418 kts | 349° |
| 2026-04-27 17:24 | 42.68010 | 1.24592 | 36132 ft | 422 kts | 349° |
| 2026-04-27 17:25 | 42.73820 | 1.23326 | 36125 ft | 421 kts | 351° |
| 2026-04-27 17:25 | 42.79610 | 1.22498 | 36138 ft | 415 kts | 353° |
| 2026-04-27 17:26 | 42.85368 | 1.21788 | 36136 ft | 416 kts | 353° |
| 2026-04-27 17:26 | 42.91129 | 1.21037 | 36131 ft | 416 kts | 353° |
| 2026-04-27 17:27 | 42.96862 | 1.20259 | 36123 ft | 416 kts | 353° |
| 2026-04-27 17:27 | 43.02632 | 1.19463 | 36117 ft | 417 kts | 351° |
| 2026-04-27 17:28 | 43.08467 | 1.18653 | 36116 ft | 426 kts | 352° |
| 2026-04-27 17:29 | 43.17387 | 1.17417 | 36098 ft | 431 kts | 352° |
| 2026-04-27 17:29 | 43.23365 | 1.16588 | 36092 ft | 432 kts | 352° |
| 2026-04-27 17:30 | 43.29354 | 1.15755 | 36082 ft | 432 kts | 352° |
| 2026-04-27 17:30 | 43.38314 | 1.14506 | 36080 ft | 430 kts | 351° |
| 2026-04-27 17:31 | 43.44259 | 1.13673 | 36074 ft | 428 kts | 351° |
| 2026-04-27 17:31 | 43.50135 | 1.12848 | 36073 ft | 426 kts | 351° |
| 2026-04-27 17:32 | 43.58962 | 1.11567 | 36070 ft | 423 kts | 347° |
| 2026-04-27 17:33 | 43.64494 | 1.09143 | 36089 ft | 414 kts | 333° |
| 2026-04-27 17:33 | 43.69757 | 1.05941 | 36078 ft | 414 kts | 333° |
| 2026-04-27 17:34 | 43.75101 | 1.02666 | 36085 ft | 424 kts | 333° |
| 2026-04-27 17:34 | 43.80570 | 0.99351 | 36077 ft | 433 kts | 333° |
| 2026-04-27 17:35 | 43.86158 | 0.95985 | 36074 ft | 441 kts | 333° |
| 2026-04-27 17:35 | 43.91807 | 0.92584 | 36073 ft | 449 kts | 333° |
| 2026-04-27 17:36 | 43.97583 | 0.89099 | 36067 ft | 455 kts | 333° |
| 2026-04-27 17:36 | 44.03425 | 0.85568 | 36065 ft | 460 kts | 333° |
| 2026-04-27 17:37 | 44.08322 | 0.82601 | 36054 ft | 462 kts | 333° |
| 2026-04-27 17:37 | 44.15181 | 0.78437 | 36050 ft | 463 kts | 333° |
| 2026-04-27 17:38 | 44.20127 | 0.75426 | 36044 ft | 463 kts | 332° |
| 2026-04-27 17:38 | 44.26001 | 0.71844 | 36050 ft | 463 kts | 332° |
| 2026-04-27 17:39 | 44.31896 | 0.68240 | 36048 ft | 462 kts | 332° |
| 2026-04-27 17:39 | 44.37795 | 0.64626 | 36054 ft | 462 kts | 332° |
| 2026-04-27 17:40 | 44.43674 | 0.61016 | 36058 ft | 461 kts | 332° |
| 2026-04-27 17:40 | 44.49542 | 0.57405 | 36059 ft | 460 kts | 332° |
| 2026-04-27 17:41 | 44.55401 | 0.53791 | 36064 ft | 459 kts | 332° |
| 2026-04-27 17:41 | 44.61210 | 0.50200 | 36056 ft | 459 kts | 332° |
| 2026-04-27 17:42 | 44.67049 | 0.46583 | 36054 ft | 458 kts | 332° |
| 2026-04-27 17:42 | 44.72891 | 0.42956 | 36052 ft | 458 kts | 332° |
| 2026-04-27 17:43 | 44.78716 | 0.39331 | 36051 ft | 458 kts | 332° |
| 2026-04-27 17:43 | 44.84547 | 0.35695 | 36050 ft | 458 kts | 332° |
| 2026-04-27 17:44 | 44.90373 | 0.32053 | 36056 ft | 457 kts | 332° |
| 2026-04-27 17:44 | 44.96155 | 0.28431 | 36059 ft | 458 kts | 332° |
| 2026-04-27 17:45 | 45.01973 | 0.24779 | 36059 ft | 458 kts | 332° |
| 2026-04-27 17:45 | 45.07787 | 0.21120 | 36074 ft | 458 kts | 332° |
| 2026-04-27 17:46 | 45.13614 | 0.17446 | 36068 ft | 458 kts | 332° |
| 2026-04-27 17:46 | 45.19434 | 0.13767 | 36070 ft | 458 kts | 332° |
| 2026-04-27 17:47 | 45.25249 | 0.10084 | 36070 ft | 458 kts | 332° |
| 2026-04-27 17:47 | 45.31068 | 0.06390 | 36078 ft | 458 kts | 332° |
| 2026-04-27 17:48 | 45.36864 | 0.02701 | 36073 ft | 458 kts | 331° |
| 2026-04-27 17:48 | 45.42692 | -0.01016 | 36083 ft | 458 kts | 331° |
| 2026-04-27 17:49 | 45.48509 | -0.04733 | 36079 ft | 458 kts | 331° |
| 2026-04-27 17:49 | 45.54336 | -0.08466 | 36085 ft | 459 kts | 331° |
| 2026-04-27 17:50 | 45.60160 | -0.12207 | 36080 ft | 459 kts | 331° |
| 2026-04-27 17:50 | 45.68860 | -0.17809 | 36082 ft | 459 kts | 331° |
| 2026-04-27 17:51 | 45.74690 | -0.21574 | 36084 ft | 459 kts | 331° |
| 2026-04-27 17:51 | 45.80513 | -0.25343 | 36086 ft | 459 kts | 330° |
| 2026-04-27 17:52 | 45.86336 | -0.29122 | 36092 ft | 459 kts | 330° |
| 2026-04-27 17:52 | 45.92166 | -0.32913 | 36090 ft | 460 kts | 330° |
| 2026-04-27 17:53 | 45.97991 | -0.36710 | 36090 ft | 460 kts | 330° |
| 2026-04-27 17:53 | 46.03783 | -0.40494 | 36094 ft | 460 kts | 330° |
| 2026-04-27 17:54 | 46.09620 | -0.44317 | 36095 ft | 460 kts | 330° |
| 2026-04-27 17:54 | 46.15447 | -0.48142 | 36100 ft | 460 kts | 330° |
| 2026-04-27 17:55 | 46.21273 | -0.51976 | 36108 ft | 461 kts | 330° |
| 2026-04-27 17:55 | 46.27120 | -0.55833 | 36105 ft | 461 kts | 330° |
| 2026-04-27 17:56 | 46.32945 | -0.59686 | 36100 ft | 461 kts | 330° |
| 2026-04-27 17:56 | 46.38775 | -0.63553 | 36116 ft | 460 kts | 330° |
| 2026-04-27 17:57 | 46.44593 | -0.67448 | 36107 ft | 460 kts | 329° |
| 2026-04-27 17:57 | 46.50305 | -0.71591 | 36113 ft | 459 kts | 327° |
| 2026-04-27 17:58 | 46.55993 | -0.75811 | 36112 ft | 459 kts | 327° |
| 2026-04-27 17:58 | 46.61651 | -0.79985 | 36116 ft | 459 kts | 328° |
| 2026-04-27 17:59 | 46.67347 | -0.84173 | 36120 ft | 459 kts | 328° |
| 2026-04-27 17:59 | 46.73049 | -0.88371 | 36121 ft | 459 kts | 328° |
| 2026-04-27 18:00 | 46.78758 | -0.92586 | 36121 ft | 460 kts | 328° |
| 2026-04-27 18:00 | 46.84460 | -0.96809 | 36125 ft | 460 kts | 328° |
| 2026-04-27 18:01 | 46.90162 | -1.01038 | 36127 ft | 460 kts | 328° |
| 2026-04-27 18:01 | 46.96226 | -1.04251 | 36126 ft | 470 kts | 345° |
| 2026-04-27 18:02 | 47.02776 | -1.05273 | 36133 ft | 475 kts | 351° |
| 2026-04-27 18:02 | 47.09373 | -1.06019 | 36121 ft | 475 kts | 351° |
| 2026-04-27 18:03 | 47.15915 | -1.06836 | 36135 ft | 475 kts | 351° |
| 2026-04-27 18:03 | 47.22501 | -1.07723 | 36132 ft | 475 kts | 350° |
| 2026-04-27 18:04 | 47.29084 | -1.08625 | 36132 ft | 475 kts | 351° |
| 2026-04-27 18:04 | 47.35654 | -1.09523 | 36129 ft | 474 kts | 351° |
| 2026-04-27 18:05 | 47.42224 | -1.10422 | 36139 ft | 474 kts | 351° |
| 2026-04-27 18:05 | 47.48795 | -1.11323 | 36135 ft | 474 kts | 351° |
| 2026-04-27 18:06 | 47.55369 | -1.12225 | 36139 ft | 474 kts | 351° |
| 2026-04-27 18:06 | 47.61930 | -1.13131 | 36144 ft | 473 kts | 351° |
| 2026-04-27 18:07 | 47.68448 | -1.14038 | 36143 ft | 473 kts | 351° |
| 2026-04-27 18:07 | 47.75008 | -1.14955 | 36149 ft | 473 kts | 351° |
| 2026-04-27 18:08 | 47.81557 | -1.15873 | 36146 ft | 473 kts | 351° |
| 2026-04-27 18:08 | 47.88110 | -1.16794 | 36155 ft | 473 kts | 351° |
| 2026-04-27 18:09 | 47.94665 | -1.17718 | 36153 ft | 472 kts | 351° |
| 2026-04-27 18:09 | 48.01208 | -1.18641 | 36155 ft | 472 kts | 351° |
| 2026-04-27 18:10 | 48.07743 | -1.19567 | 36159 ft | 472 kts | 351° |
| 2026-04-27 18:10 | 48.14295 | -1.20497 | 36159 ft | 472 kts | 351° |
| 2026-04-27 18:11 | 48.20791 | -1.21421 | 36167 ft | 472 kts | 352° |
| 2026-04-27 18:11 | 48.27324 | -1.22353 | 36163 ft | 471 kts | 352° |
| 2026-04-27 18:12 | 48.33861 | -1.23288 | 36170 ft | 471 kts | 352° |
| 2026-04-27 18:12 | 48.40386 | -1.24224 | 36172 ft | 470 kts | 352° |
| 2026-04-27 18:13 | 48.46895 | -1.25160 | 36179 ft | 470 kts | 352° |
| 2026-04-27 18:13 | 48.53401 | -1.26098 | 36181 ft | 469 kts | 352° |
| 2026-04-27 18:14 | 48.59899 | -1.27037 | 36182 ft | 469 kts | 352° |
| 2026-04-27 18:14 | 48.66355 | -1.27973 | 36190 ft | 468 kts | 352° |
| 2026-04-27 18:15 | 48.72835 | -1.28914 | 36190 ft | 467 kts | 353° |
| 2026-04-27 18:15 | 48.79305 | -1.29856 | 36195 ft | 467 kts | 353° |
| 2026-04-27 18:16 | 48.85768 | -1.30801 | 36198 ft | 466 kts | 353° |
| 2026-04-27 18:16 | 48.92211 | -1.31744 | 36203 ft | 465 kts | 353° |
| 2026-04-27 18:17 | 48.98645 | -1.32689 | 36208 ft | 464 kts | 353° |
| 2026-04-27 18:17 | 49.05062 | -1.33633 | 36213 ft | 462 kts | 353° |
| 2026-04-27 18:18 | 49.11453 | -1.34575 | 36212 ft | 461 kts | 353° |
| 2026-04-27 18:18 | 49.17831 | -1.35519 | 36216 ft | 460 kts | 353° |
| 2026-04-27 18:19 | 49.24154 | -1.36458 | 36216 ft | 459 kts | 353° |
| 2026-04-27 18:19 | 49.30506 | -1.37401 | 36220 ft | 458 kts | 353° |
| 2026-04-27 18:20 | 49.36842 | -1.38345 | 36230 ft | 457 kts | 353° |
| 2026-04-27 18:20 | 49.43179 | -1.39294 | 36230 ft | 457 kts | 353° |
| 2026-04-27 18:21 | 49.49505 | -1.40246 | 36233 ft | 456 kts | 353° |
| 2026-04-27 18:21 | 49.55821 | -1.41198 | 36236 ft | 455 kts | 353° |
| 2026-04-27 18:22 | 49.62147 | -1.41583 | 36246 ft | 456 kts | 1° |
| 2026-04-27 18:22 | 49.68485 | -1.40945 | 36235 ft | 456 kts | 2° |
| 2026-04-27 18:23 | 49.74812 | -1.40284 | 36242 ft | 455 kts | 2° |
| 2026-04-27 18:23 | 49.81140 | -1.39635 | 36241 ft | 456 kts | 6° |
| 2026-04-27 18:24 | 49.87285 | -1.37197 | 36243 ft | 458 kts | 15° |
| 2026-04-27 18:24 | 49.93334 | -1.34210 | 36228 ft | 458 kts | 15° |
| 2026-04-27 18:25 | 49.99415 | -1.31237 | 36238 ft | 458 kts | 15° |
| 2026-04-27 18:25 | 50.05501 | -1.28327 | 36229 ft | 458 kts | 15° |
| 2026-04-27 18:26 | 50.10565 | -1.25921 | 36230 ft | 458 kts | 14° |
| 2026-04-27 18:26 | 50.16667 | -1.23018 | 36233 ft | 458 kts | 14° |
| 2026-04-27 18:27 | 50.22754 | -1.20112 | 36236 ft | 458 kts | 14° |
| 2026-04-27 18:27 | 50.28844 | -1.17196 | 36238 ft | 457 kts | 14° |
| 2026-04-27 18:28 | 50.34927 | -1.14275 | 36237 ft | 457 kts | 14° |
| 2026-04-27 18:28 | 50.41008 | -1.11347 | 36241 ft | 456 kts | 14° |
| 2026-04-27 18:29 | 50.47068 | -1.08421 | 36236 ft | 456 kts | 14° |
| 2026-04-27 18:29 | 50.53118 | -1.05492 | 36240 ft | 455 kts | 14° |
| 2026-04-27 18:30 | 50.59166 | -1.02556 | 36236 ft | 453 kts | 14° |
| 2026-04-27 18:30 | 50.65182 | -0.99629 | 36235 ft | 452 kts | 14° |
| 2026-04-27 18:31 | 50.71155 | -0.96714 | 36233 ft | 451 kts | 14° |
| 2026-04-27 18:31 | 50.77148 | -0.93782 | 36234 ft | 450 kts | 14° |
| 2026-04-27 18:32 | 50.83120 | -0.90851 | 36231 ft | 449 kts | 14° |
| 2026-04-27 18:32 | 50.89086 | -0.87917 | 36234 ft | 448 kts | 14° |
| 2026-04-27 18:33 | 50.94973 | -0.85014 | 36231 ft | 447 kts | 14° |
| 2026-04-27 18:33 | 51.00904 | -0.82080 | 36227 ft | 447 kts | 14° |
| 2026-04-27 18:34 | 51.06806 | -0.79154 | 36221 ft | 446 kts | 14° |
| 2026-04-27 18:34 | 51.12729 | -0.76209 | 36213 ft | 446 kts | 14° |
| 2026-04-27 18:35 | 51.18650 | -0.73258 | 36218 ft | 446 kts | 14° |
| 2026-04-27 18:35 | 51.24567 | -0.70300 | 36228 ft | 446 kts | 14° |
| 2026-04-27 18:36 | 51.30505 | -0.67324 | 36212 ft | 446 kts | 14° |
| 2026-04-27 18:36 | 51.34465 | -0.65334 | 36213 ft | 446 kts | 14° |
| 2026-04-27 18:37 | 51.37948 | -0.63582 | 36217 ft | 447 kts | 14° |
| 2026-04-27 18:37 | 51.43842 | -0.60610 | 36244 ft | 447 kts | 14° |
| 2026-04-27 18:38 | 51.49778 | -0.57609 | 36238 ft | 448 kts | 14° |
| 2026-04-27 18:38 | 51.55755 | -0.54578 | 36214 ft | 448 kts | 14° |
| 2026-04-27 18:39 | 51.61660 | -0.51577 | 36218 ft | 448 kts | 14° |
| 2026-04-27 18:39 | 51.67607 | -0.48547 | 36222 ft | 448 kts | 14° |
| 2026-04-27 18:40 | 51.73547 | -0.45512 | 36293 ft | 448 kts | 14° |
| 2026-04-27 18:40 | 51.79600 | -0.43635 | 36285 ft | 438 kts | 353° |
| 2026-04-27 18:41 | 51.82589 | -0.44410 | 36262 ft | 434 kts | 342° |
| 2026-04-27 18:41 | 51.85363 | -0.46264 | 36271 ft | 431 kts | 329° |
| 2026-04-27 18:41 | 51.90418 | -0.51417 | 36269 ft | 427 kts | 327° |
| 2026-04-27 18:42 | 51.94597 | -0.55597 | 36257 ft | 423 kts | 328° |
| 2026-04-27 18:42 | 52.00470 | -0.61315 | 36259 ft | 419 kts | 329° |
| 2026-04-27 18:43 | 52.05467 | -0.66191 | 36264 ft | 417 kts | 329° |
| 2026-04-27 18:43 | 52.10406 | -0.71036 | 36268 ft | 417 kts | 329° |
| 2026-04-27 18:44 | 52.15399 | -0.75955 | 36269 ft | 418 kts | 329° |
| 2026-04-27 18:44 | 52.20358 | -0.80874 | 36278 ft | 420 kts | 329° |
| 2026-04-27 18:45 | 52.25367 | -0.85852 | 36281 ft | 422 kts | 329° |
| 2026-04-27 18:45 | 52.30398 | -0.90837 | 36283 ft | 424 kts | 329° |
| 2026-04-27 18:46 | 52.35446 | -0.95847 | 36281 ft | 425 kts | 329° |
| 2026-04-27 18:46 | 52.40497 | -1.00882 | 36283 ft | 425 kts | 329° |
| 2026-04-27 18:47 | 52.45553 | -1.05937 | 36274 ft | 425 kts | 329° |
| 2026-04-27 18:47 | 52.50173 | -1.10572 | 36274 ft | 424 kts | 329° |
| 2026-04-27 18:48 | 52.55186 | -1.15660 | 36272 ft | 424 kts | 329° |
| 2026-04-27 18:48 | 52.60189 | -1.20733 | 36257 ft | 419 kts | 329° |
| 2026-04-27 18:49 | 52.62603 | -1.23178 | 36258 ft | 403 kts | 329° |
| 2026-04-27 18:49 | 52.64951 | -1.25560 | 36249 ft | 392 kts | 329° |
| 2026-04-27 18:49 | 52.69526 | -1.30208 | 35949 ft | 376 kts | 329° |
| 2026-04-27 18:50 | 52.71728 | -1.32448 | 35713 ft | 370 kts | 330° |
| 2026-04-27 18:50 | 52.73907 | -1.34662 | 35359 ft | 368 kts | 330° |
| 2026-04-27 18:50 | 52.76081 | -1.36872 | 34919 ft | 368 kts | 330° |
| 2026-04-27 18:50 | 52.78265 | -1.39096 | 34514 ft | 365 kts | 331° |
| 2026-04-27 18:51 | 52.80426 | -1.41301 | 34095 ft | 363 kts | 331° |
| 2026-04-27 18:51 | 52.82571 | -1.43492 | 33565 ft | 363 kts | 331° |
| 2026-04-27 18:51 | 52.84714 | -1.45684 | 33020 ft | 363 kts | 331° |
| 2026-04-27 18:51 | 52.86864 | -1.47886 | 32495 ft | 363 kts | 331° |
| 2026-04-27 18:52 | 52.89008 | -1.50085 | 31980 ft | 362 kts | 331° |
| 2026-04-27 18:52 | 52.91141 | -1.52275 | 31478 ft | 360 kts | 331° |
| 2026-04-27 18:52 | 52.93266 | -1.54461 | 30991 ft | 359 kts | 331° |
| 2026-04-27 18:53 | 52.97441 | -1.58765 | 29986 ft | 357 kts | 331° |
| 2026-04-27 18:53 | 52.99574 | -1.60965 | 29412 ft | 356 kts | 332° |
| 2026-04-27 18:53 | 53.01672 | -1.63132 | 28857 ft | 354 kts | 332° |
| 2026-04-27 18:53 | 53.03731 | -1.65260 | 28323 ft | 352 kts | 332° |
| 2026-04-27 18:54 | 53.05860 | -1.67246 | 27765 ft | 349 kts | 338° |
| 2026-04-27 18:54 | 53.08131 | -1.68759 | 27118 ft | 354 kts | 342° |
| 2026-04-27 18:54 | 53.10464 | -1.70162 | 26489 ft | 358 kts | 342° |
| 2026-04-27 18:54 | 53.12811 | -1.71585 | 25843 ft | 359 kts | 342° |
| 2026-04-27 18:55 | 53.15159 | -1.73030 | 25212 ft | 357 kts | 342° |
| 2026-04-27 18:55 | 53.17479 | -1.74469 | 24748 ft | 353 kts | 342° |
| 2026-04-27 18:55 | 53.19757 | -1.75885 | 24356 ft | 346 kts | 342° |
| 2026-04-27 18:55 | 53.21993 | -1.77275 | 23955 ft | 340 kts | 342° |
| 2026-04-27 18:56 | 53.24151 | -1.78618 | 23797 ft | 327 kts | 342° |
| 2026-04-27 18:56 | 53.26253 | -1.79929 | 23517 ft | 318 kts | 342° |
| 2026-04-27 18:56 | 53.28321 | -1.81218 | 22913 ft | 318 kts | 342° |
| 2026-04-27 18:56 | 53.30406 | -1.82517 | 22218 ft | 321 kts | 342° |
| 2026-04-27 18:57 | 53.32506 | -1.83828 | 21597 ft | 320 kts | 342° |
| 2026-04-27 18:57 | 53.34574 | -1.85123 | 20837 ft | 317 kts | 341° |
| 2026-04-27 18:57 | 53.36668 | -1.86434 | 20249 ft | 320 kts | 341° |
| 2026-04-27 18:57 | 53.38712 | -1.87719 | 20204 ft | 307 kts | 341° |
| 2026-04-27 18:58 | 53.40675 | -1.88954 | 20122 ft | 296 kts | 341° |
| 2026-04-27 18:58 | 53.41934 | -1.89748 | 20067 ft | 289 kts | 341° |
| 2026-04-27 18:58 | 53.44421 | -1.91314 | 19745 ft | 283 kts | 341° |
| 2026-04-27 18:58 | 53.46272 | -1.92477 | 19289 ft | 283 kts | 341° |
| 2026-04-27 18:59 | 53.48095 | -1.93625 | 18674 ft | 285 kts | 341° |
| 2026-04-27 18:59 | 53.49963 | -1.94769 | 17889 ft | 287 kts | 346° |
| 2026-04-27 18:59 | 53.51939 | -1.95076 | 17291 ft | 285 kts | 3° |
| 2026-04-27 18:59 | 53.53592 | -1.94582 | 16829 ft | 285 kts | 17° |
| 2026-04-27 19:00 | 53.55401 | -1.93235 | 16262 ft | 286 kts | 24° |
| 2026-04-27 19:00 | 53.57160 | -1.91676 | 15701 ft | 286 kts | 25° |
| 2026-04-27 19:00 | 53.58907 | -1.90082 | 15157 ft | 285 kts | 26° |
| 2026-04-27 19:00 | 53.60641 | -1.88501 | 14653 ft | 283 kts | 26° |
| 2026-04-27 19:01 | 53.62161 | -1.87124 | 14213 ft | 282 kts | 26° |
| 2026-04-27 19:01 | 53.63837 | -1.85613 | 13667 ft | 281 kts | 26° |
| 2026-04-27 19:01 | 53.65559 | -1.84066 | 13133 ft | 278 kts | 26° |
| 2026-04-27 19:01 | 53.66975 | -1.82797 | 12709 ft | 277 kts | 26° |
| 2026-04-27 19:02 | 53.68669 | -1.81280 | 12184 ft | 275 kts | 26° |
| 2026-04-27 19:02 | 53.70358 | -1.79769 | 11694 ft | 273 kts | 27° |
| 2026-04-27 19:02 | 53.72034 | -1.78271 | 11182 ft | 272 kts | 27° |
| 2026-04-27 19:02 | 53.73699 | -1.76781 | 10684 ft | 270 kts | 27° |
| 2026-04-27 19:03 | 53.75338 | -1.75313 | 10250 ft | 267 kts | 27° |
| 2026-04-27 19:03 | 53.76944 | -1.73875 | 10170 ft | 250 kts | 27° |
| 2026-04-27 19:03 | 53.78416 | -1.72554 | 10038 ft | 237 kts | 27° |
| 2026-04-27 19:03 | 53.79387 | -1.71682 | 9837 ft | 233 kts | 27° |
| 2026-04-27 19:04 | 53.81298 | -1.70166 | 9193 ft | 228 kts | 13° |
| 2026-04-27 19:04 | 53.82881 | -1.70102 | 8600 ft | 231 kts | 349° |
| 2026-04-27 19:04 | 53.84341 | -1.71228 | 8152 ft | 234 kts | 325° |
| 2026-04-27 19:04 | 53.85396 | -1.73329 | 7750 ft | 238 kts | 301° |
| 2026-04-27 19:05 | 53.85851 | -1.76035 | 7319 ft | 243 kts | 277° |
| 2026-04-27 19:05 | 53.85613 | -1.78877 | 6905 ft | 249 kts | 253° |
| 2026-04-27 19:05 | 53.84686 | -1.81364 | 6451 ft | 254 kts | 224° |
| 2026-04-27 19:05 | 53.83107 | -1.82554 | 6171 ft | 249 kts | 183° |
| 2026-04-27 19:06 | 53.81454 | -1.82002 | 5997 ft | 243 kts | 150° |
| 2026-04-27 19:06 | 53.80067 | -1.80429 | 5812 ft | 244 kts | 136° |
| 2026-04-27 19:06 | 53.78839 | -1.78434 | 5621 ft | 245 kts | 131° |
| 2026-04-27 19:06 | 53.77652 | -1.76371 | 5418 ft | 245 kts | 130° |
| 2026-04-27 19:07 | 53.76468 | -1.74303 | 5206 ft | 244 kts | 130° |
| 2026-04-27 19:07 | 53.75286 | -1.72236 | 4983 ft | 244 kts | 130° |
| 2026-04-27 19:07 | 53.74108 | -1.70174 | 4754 ft | 243 kts | 130° |
| 2026-04-27 19:07 | 53.72934 | -1.68123 | 4552 ft | 242 kts | 130° |
| 2026-04-27 19:08 | 53.71766 | -1.66087 | 4351 ft | 241 kts | 130° |
| 2026-04-27 19:08 | 53.70621 | -1.64099 | 4153 ft | 231 kts | 130° |
| 2026-04-27 19:08 | 53.69529 | -1.62213 | 3967 ft | 217 kts | 128° |
| 2026-04-27 19:08 | 53.68921 | -1.60091 | 3762 ft | 193 kts | 87° |
| 2026-04-27 19:09 | 53.69213 | -1.58036 | 3636 ft | 176 kts | 60° |
| 2026-04-27 19:09 | 53.69755 | -1.56188 | 3538 ft | 176 kts | 60° |
| 2026-04-27 19:09 | 53.70291 | -1.54349 | 3500 ft | 172 kts | 60° |
| 2026-04-27 19:09 | 53.70817 | -1.52552 | 3487 ft | 171 kts | 60° |
| 2026-04-27 19:10 | 53.71339 | -1.50773 | 3500 ft | 173 kts | 60° |
| 2026-04-27 19:10 | 53.71877 | -1.48934 | 3510 ft | 175 kts | 60° |
| 2026-04-27 19:10 | 53.72499 | -1.47211 | 3474 ft | 170 kts | 39° |
| 2026-04-27 19:10 | 53.72823 | -1.46837 | 3477 ft | 166 kts | 22° |
| 2026-04-27 19:11 | 53.74514 | -1.47691 | 3515 ft | 163 kts | 327° |
| 2026-04-27 19:11 | 53.75409 | -1.48864 | 3477 ft | 161 kts | 326° |
| 2026-04-27 19:11 | 53.76263 | -1.50105 | 3348 ft | 164 kts | 324° |
| 2026-04-27 19:11 | 53.77095 | -1.51375 | 3127 ft | 157 kts | 324° |
| 2026-04-27 19:12 | 53.77874 | -1.52580 | 2929 ft | 149 kts | 324° |
| 2026-04-27 19:12 | 53.78631 | -1.53750 | 2731 ft | 146 kts | 324° |
| 2026-04-27 19:12 | 53.79128 | -1.54519 | 2591 ft | 146 kts | 324° |
| 2026-04-27 19:12 | 53.79876 | -1.55675 | 2396 ft | 146 kts | 324° |
| 2026-04-27 19:13 | 53.80624 | -1.56845 | 2211 ft | 147 kts | 324° |
| 2026-04-27 19:13 | 53.81381 | -1.58003 | 2025 ft | 147 kts | 325° |
| 2026-04-27 19:13 | 53.82138 | -1.59167 | 1815 ft | 147 kts | 322° |
| 2026-04-27 19:13 | 53.82882 | -1.60364 | 1576 ft | 147 kts | 322° |
| 2026-04-27 19:14 | 53.83645 | -1.61497 | 1366 ft | 146 kts | 323° |
| 2026-04-27 19:14 | 53.84399 | -1.62662 | 1158 ft | 149 kts | 321° |
| 2026-04-27 19:14 | 53.85162 | -1.63854 | 956 ft | 148 kts | 322° |
| 2026-04-27 19:14 | 53.85917 | -1.65026 | 715 ft | 145 kts | 321° |
| 2026-04-27 19:15 | 53.86582 | -1.66045 | 664 ft | 102 kts | 317° |
| 2026-04-27 19:15 | 53.86911 | -1.66556 | 669 ft | 33 kts | 318° |
| 2026-04-27 19:15 | 53.87026 | -1.66728 | 674 ft | 8 kts | 317° |
| 2026-04-27 19:15 | 53.87042 | -1.66743 | 675 ft | 0 kts | 336° |
| 2026-04-27 19:16 | 53.87052 | -1.66749 | 675 ft | 2 kts | 338° |
| 2026-04-27 19:16 | 53.87063 | -1.66757 | 676 ft | 4 kts | 338° |
| 2026-04-27 19:16 | 53.87067 | -1.66797 | 677 ft | 4 kts | 189° |
| 2026-04-27 19:16 | 53.87022 | -1.66726 | 674 ft | 15 kts | 136° |
| 2026-04-27 19:17 | 53.86912 | -1.66557 | 669 ft | 25 kts | 137° |
| 2026-04-27 19:17 | 53.86794 | -1.66372 | 666 ft | 22 kts | 137° |
| 2026-04-27 19:17 | 53.86746 | -1.66192 | 665 ft | 15 kts | 92° |
| 2026-04-27 19:17 | 53.86743 | -1.66020 | 664 ft | 11 kts | 92° |
| 2026-04-27 19:18 | 53.86743 | -1.65924 | 664 ft | 8 kts | 91° |
| 2026-04-27 19:18 | 53.86744 | -1.65833 | 664 ft | 8 kts | 77° |
| 2026-04-27 19:18 | 53.86782 | -1.65765 | 664 ft | 9 kts | 20° |
| 2026-04-27 19:18 | 53.86817 | -1.65676 | 664 ft | 9 kts | 89° |
| 2026-04-27 19:19 | 53.86815 | -1.65582 | 664 ft | 8 kts | 92° |
| 2026-04-27 19:19 | 53.86814 | -1.65515 | 664 ft | 4 kts | 91° |
| 2026-04-27 19:19 | 53.86818 | -1.65474 | 664 ft | 1 kts | 41° |
| 2026-04-27 19:19 | 53.86830 | -1.65477 | 664 ft | 4 kts | 358° |
| 2026-04-27 19:20 | 53.86864 | -1.65477 | 664 ft | 3 kts | 0° |
| 2026-04-27 19:20 | 53.86874 | -1.65477 | 662 ft | 1 kts | 0° |
| 2026-04-27 19:20 | 53.86881 | -1.65477 | 663 ft | 0 kts | 0° |
| 2026-04-27 19:20 | 53.86882 | -1.65477 | 663 ft | 0 kts | 0° |